sensor_id;sensor_type;location;lat;lon;timestamp;P1;durP1;ratioP1;P2;durP2;ratioP2
21166;SDS011;10741;52.272;9.580;2023-04-25T00:01:28;13.70;;;5.50;;
21166;SDS011;10741;52.272;9.580;2023-04-25T00:03:54;9.23;;;5.00;;
21166;SDS011;10741;52.272;9.580;2023-04-25T00:06:20;12.70;;;5.30;;
21166;SDS011;10741;52.272;9.580;2023-04-25T00:08:46;12.50;;;5.20;;
21166;SDS011;10741;52.272;9.580;2023-04-25T00:11:13;14.23;;;5.67;;
21166;SDS011;10741;52.272;9.580;2023-04-25T00:13:39;13.83;;;6.03;;
21166;SDS011;10741;52.272;9.580;2023-04-25T00:16:06;12.77;;;5.77;;
21166;SDS011;10741;52.272;9.580;2023-04-25T00:18:32;16.87;;;6.03;;
21166;SDS011;10741;52.272;9.580;2023-04-25T00:20:58;11.80;;;5.60;;
21166;SDS011;10741;52.272;9.580;2023-04-25T00:23:24;10.23;;;5.70;;
21166;SDS011;10741;52.272;9.580;2023-04-25T00:25:50;14.27;;;5.83;;
21166;SDS011;10741;52.272;9.580;2023-04-25T00:28:16;11.83;;;5.93;;
21166;SDS011;10741;52.272;9.580;2023-04-25T00:30:42;14.40;;;5.97;;
21166;SDS011;10741;52.272;9.580;2023-04-25T00:33:08;15.07;;;5.80;;
21166;SDS011;10741;52.272;9.580;2023-04-25T00:35:34;12.40;;;6.23;;
21166;SDS011;10741;52.272;9.580;2023-04-25T00:38:00;14.60;;;5.77;;
21166;SDS011;10741;52.272;9.580;2023-04-25T00:40:26;14.10;;;5.73;;
21166;SDS011;10741;52.272;9.580;2023-04-25T00:42:52;13.63;;;6.30;;
21166;SDS011;10741;52.272;9.580;2023-04-25T00:45:18;11.73;;;6.10;;
21166;SDS011;10741;52.272;9.580;2023-04-25T00:47:45;15.33;;;6.13;;
21166;SDS011;10741;52.272;9.580;2023-04-25T00:50:11;9.47;;;5.60;;
21166;SDS011;10741;52.272;9.580;2023-04-25T00:52:41;16.10;;;6.47;;
21166;SDS011;10741;52.272;9.580;2023-04-25T00:55:09;13.30;;;6.23;;
21166;SDS011;10741;52.272;9.580;2023-04-25T00:57:36;13.53;;;6.03;;
21166;SDS011;10741;52.272;9.580;2023-04-25T01:00:03;14.17;;;6.00;;
21166;SDS011;10741;52.272;9.580;2023-04-25T01:02:32;12.00;;;5.83;;
21166;SDS011;10741;52.272;9.580;2023-04-25T01:04:59;11.77;;;6.07;;
21166;SDS011;10741;52.272;9.580;2023-04-25T01:07:25;12.43;;;5.83;;
21166;SDS011;10741;52.272;9.580;2023-04-25T01:09:51;14.53;;;6.23;;
21166;SDS011;10741;52.272;9.580;2023-04-25T01:12:17;12.17;;;5.43;;
21166;SDS011;10741;52.272;9.580;2023-04-25T01:14:43;15.00;;;6.63;;
21166;SDS011;10741;52.272;9.580;2023-04-25T01:17:10;12.97;;;6.23;;
21166;SDS011;10741;52.272;9.580;2023-04-25T01:19:36;13.63;;;5.80;;
21166;SDS011;10741;52.272;9.580;2023-04-25T01:22:02;13.73;;;6.30;;
21166;SDS011;10741;52.272;9.580;2023-04-25T01:24:29;16.50;;;6.93;;
21166;SDS011;10741;52.272;9.580;2023-04-25T01:26:56;14.00;;;6.50;;
21166;SDS011;10741;52.272;9.580;2023-04-25T01:29:27;14.50;;;7.10;;
21166;SDS011;10741;52.272;9.580;2023-04-25T01:31:54;13.83;;;6.63;;
21166;SDS011;10741;52.272;9.580;2023-04-25T01:34:20;17.20;;;7.23;;
21166;SDS011;10741;52.272;9.580;2023-04-25T01:36:49;15.63;;;6.47;;
21166;SDS011;10741;52.272;9.580;2023-04-25T01:39:16;13.60;;;6.90;;
21166;SDS011;10741;52.272;9.580;2023-04-25T01:41:42;17.37;;;6.83;;
21166;SDS011;10741;52.272;9.580;2023-04-25T01:44:08;14.17;;;6.93;;
21166;SDS011;10741;52.272;9.580;2023-04-25T01:46:34;17.50;;;6.63;;
21166;SDS011;10741;52.272;9.580;2023-04-25T01:49:00;15.67;;;7.47;;
21166;SDS011;10741;52.272;9.580;2023-04-25T01:51:26;11.90;;;6.47;;
21166;SDS011;10741;52.272;9.580;2023-04-25T01:53:52;13.43;;;6.83;;
21166;SDS011;10741;52.272;9.580;2023-04-25T01:56:20;10.53;;;6.60;;
21166;SDS011;10741;52.272;9.580;2023-04-25T01:58:46;11.13;;;6.10;;
21166;SDS011;10741;52.272;9.580;2023-04-25T02:01:11;15.60;;;7.20;;
21166;SDS011;10741;52.272;9.580;2023-04-25T02:03:37;13.07;;;6.67;;
21166;SDS011;10741;52.272;9.580;2023-04-25T02:06:03;12.70;;;6.77;;
21166;SDS011;10741;52.272;9.580;2023-04-25T02:08:29;10.87;;;7.20;;
21166;SDS011;10741;52.272;9.580;2023-04-25T02:10:56;10.97;;;6.37;;
21166;SDS011;10741;52.272;9.580;2023-04-25T02:13:22;16.87;;;7.20;;
21166;SDS011;10741;52.272;9.580;2023-04-25T02:15:48;13.47;;;6.83;;
21166;SDS011;10741;52.272;9.580;2023-04-25T02:18:14;9.53;;;5.87;;
21166;SDS011;10741;52.272;9.580;2023-04-25T02:20:41;9.77;;;5.53;;
21166;SDS011;10741;52.272;9.580;2023-04-25T02:23:07;12.27;;;6.53;;
21166;SDS011;10741;52.272;9.580;2023-04-25T02:25:33;12.40;;;6.50;;
21166;SDS011;10741;52.272;9.580;2023-04-25T02:27:59;12.53;;;6.37;;
21166;SDS011;10741;52.272;9.580;2023-04-25T02:30:25;14.07;;;6.20;;
21166;SDS011;10741;52.272;9.580;2023-04-25T02:32:51;9.00;;;6.17;;
21166;SDS011;10741;52.272;9.580;2023-04-25T02:35:16;10.60;;;5.87;;
21166;SDS011;10741;52.272;9.580;2023-04-25T02:37:42;12.73;;;6.03;;
21166;SDS011;10741;52.272;9.580;2023-04-25T02:40:08;17.53;;;5.53;;
21166;SDS011;10741;52.272;9.580;2023-04-25T02:42:34;13.00;;;5.43;;
21166;SDS011;10741;52.272;9.580;2023-04-25T02:45:00;15.87;;;5.60;;
21166;SDS011;10741;52.272;9.580;2023-04-25T02:47:27;16.93;;;5.90;;
21166;SDS011;10741;52.272;9.580;2023-04-25T02:49:53;21.83;;;6.17;;
21166;SDS011;10741;52.272;9.580;2023-04-25T02:52:18;18.97;;;6.37;;
21166;SDS011;10741;52.272;9.580;2023-04-25T02:54:44;20.43;;;6.20;;
21166;SDS011;10741;52.272;9.580;2023-04-25T02:57:10;19.20;;;6.17;;
21166;SDS011;10741;52.272;9.580;2023-04-25T02:59:36;22.87;;;6.40;;
21166;SDS011;10741;52.272;9.580;2023-04-25T03:02:02;15.40;;;6.00;;
21166;SDS011;10741;52.272;9.580;2023-04-25T03:04:27;14.50;;;6.00;;
21166;SDS011;10741;52.272;9.580;2023-04-25T03:06:53;20.93;;;5.90;;
21166;SDS011;10741;52.272;9.580;2023-04-25T03:09:19;20.87;;;6.23;;
21166;SDS011;10741;52.272;9.580;2023-04-25T03:11:45;19.13;;;5.50;;
21166;SDS011;10741;52.272;9.580;2023-04-25T03:14:11;20.80;;;5.87;;
21166;SDS011;10741;52.272;9.580;2023-04-25T03:16:37;20.27;;;6.60;;
21166;SDS011;10741;52.272;9.580;2023-04-25T03:19:03;17.00;;;5.90;;
21166;SDS011;10741;52.272;9.580;2023-04-25T03:21:30;19.33;;;5.40;;
21166;SDS011;10741;52.272;9.580;2023-04-25T03:23:57;23.93;;;6.63;;
21166;SDS011;10741;52.272;9.580;2023-04-25T03:26:23;18.53;;;6.07;;
21166;SDS011;10741;52.272;9.580;2023-04-25T03:28:49;21.37;;;5.70;;
21166;SDS011;10741;52.272;9.580;2023-04-25T03:31:15;24.80;;;6.47;;
21166;SDS011;10741;52.272;9.580;2023-04-25T03:33:41;29.93;;;7.07;;
21166;SDS011;10741;52.272;9.580;2023-04-25T03:36:07;18.77;;;6.10;;
21166;SDS011;10741;52.272;9.580;2023-04-25T03:38:33;18.60;;;5.97;;
21166;SDS011;10741;52.272;9.580;2023-04-25T03:40:59;19.83;;;5.73;;
21166;SDS011;10741;52.272;9.580;2023-04-25T03:43:26;16.87;;;5.23;;
21166;SDS011;10741;52.272;9.580;2023-04-25T03:45:51;17.53;;;5.43;;
21166;SDS011;10741;52.272;9.580;2023-04-25T03:48:17;16.30;;;5.63;;
21166;SDS011;10741;52.272;9.580;2023-04-25T03:50:43;15.50;;;5.40;;
21166;SDS011;10741;52.272;9.580;2023-04-25T03:53:08;31.13;;;6.33;;
21166;SDS011;10741;52.272;9.580;2023-04-25T03:55:34;20.27;;;5.33;;
21166;SDS011;10741;52.272;9.580;2023-04-25T03:58:00;24.67;;;5.40;;
21166;SDS011;10741;52.272;9.580;2023-04-25T04:00:26;19.77;;;5.27;;
21166;SDS011;10741;52.272;9.580;2023-04-25T04:02:51;26.50;;;5.60;;
21166;SDS011;10741;52.272;9.580;2023-04-25T04:05:17;14.73;;;4.90;;
21166;SDS011;10741;52.272;9.580;2023-04-25T04:07:43;20.03;;;5.27;;
21166;SDS011;10741;52.272;9.580;2023-04-25T04:10:09;24.33;;;5.03;;
21166;SDS011;10741;52.272;9.580;2023-04-25T04:12:35;22.10;;;5.33;;
21166;SDS011;10741;52.272;9.580;2023-04-25T04:15:03;22.93;;;5.03;;
21166;SDS011;10741;52.272;9.580;2023-04-25T04:17:30;20.10;;;5.40;;
21166;SDS011;10741;52.272;9.580;2023-04-25T04:19:57;18.40;;;4.63;;
21166;SDS011;10741;52.272;9.580;2023-04-25T04:22:23;18.73;;;4.77;;
21166;SDS011;10741;52.272;9.580;2023-04-25T04:24:49;15.47;;;4.80;;
21166;SDS011;10741;52.272;9.580;2023-04-25T04:27:17;16.83;;;5.13;;
21166;SDS011;10741;52.272;9.580;2023-04-25T04:29:43;16.37;;;5.13;;
21166;SDS011;10741;52.272;9.580;2023-04-25T04:32:08;18.87;;;5.13;;
21166;SDS011;10741;52.272;9.580;2023-04-25T04:34:34;17.23;;;5.13;;
21166;SDS011;10741;52.272;9.580;2023-04-25T04:37:00;12.80;;;5.30;;
21166;SDS011;10741;52.272;9.580;2023-04-25T04:39:26;21.23;;;5.33;;
21166;SDS011;10741;52.272;9.580;2023-04-25T04:41:52;20.40;;;4.73;;
21166;SDS011;10741;52.272;9.580;2023-04-25T04:44:18;20.73;;;4.77;;
21166;SDS011;10741;52.272;9.580;2023-04-25T04:46:44;21.10;;;5.77;;
21166;SDS011;10741;52.272;9.580;2023-04-25T04:49:12;19.40;;;4.93;;
21166;SDS011;10741;52.272;9.580;2023-04-25T04:51:39;15.57;;;5.00;;
21166;SDS011;10741;52.272;9.580;2023-04-25T04:54:09;16.07;;;4.53;;
21166;SDS011;10741;52.272;9.580;2023-04-25T04:56:35;13.93;;;4.60;;
21166;SDS011;10741;52.272;9.580;2023-04-25T04:59:01;17.20;;;4.90;;
21166;SDS011;10741;52.272;9.580;2023-04-25T05:01:27;17.73;;;4.47;;
21166;SDS011;10741;52.272;9.580;2023-04-25T05:03:55;23.83;;;4.37;;
21166;SDS011;10741;52.272;9.580;2023-04-25T05:06:25;14.30;;;4.67;;
21166;SDS011;10741;52.272;9.580;2023-04-25T05:08:52;21.10;;;4.20;;
21166;SDS011;10741;52.272;9.580;2023-04-25T05:11:18;23.13;;;4.50;;
21166;SDS011;10741;52.272;9.580;2023-04-25T05:13:44;19.37;;;4.30;;
21166;SDS011;10741;52.272;9.580;2023-04-25T05:16:11;14.20;;;3.77;;
21166;SDS011;10741;52.272;9.580;2023-04-25T05:18:37;16.13;;;4.30;;
21166;SDS011;10741;52.272;9.580;2023-04-25T05:21:03;22.70;;;4.87;;
21166;SDS011;10741;52.272;9.580;2023-04-25T05:23:30;14.07;;;3.70;;
21166;SDS011;10741;52.272;9.580;2023-04-25T05:25:56;18.80;;;3.87;;
21166;SDS011;10741;52.272;9.580;2023-04-25T05:28:22;10.73;;;3.63;;
21166;SDS011;10741;52.272;9.580;2023-04-25T05:30:48;19.67;;;3.27;;
21166;SDS011;10741;52.272;9.580;2023-04-25T05:33:14;13.90;;;3.60;;
21166;SDS011;10741;52.272;9.580;2023-04-25T05:35:40;17.20;;;3.90;;
21166;SDS011;10741;52.272;9.580;2023-04-25T05:38:06;15.67;;;4.27;;
21166;SDS011;10741;52.272;9.580;2023-04-25T05:40:32;16.60;;;3.30;;
21166;SDS011;10741;52.272;9.580;2023-04-25T05:42:57;16.17;;;3.93;;
21166;SDS011;10741;52.272;9.580;2023-04-25T05:45:23;16.03;;;3.87;;
21166;SDS011;10741;52.272;9.580;2023-04-25T05:47:49;16.73;;;4.03;;
21166;SDS011;10741;52.272;9.580;2023-04-25T05:50:15;18.47;;;4.57;;
21166;SDS011;10741;52.272;9.580;2023-04-25T05:52:40;18.83;;;4.13;;
21166;SDS011;10741;52.272;9.580;2023-04-25T05:55:06;20.30;;;5.17;;
21166;SDS011;10741;52.272;9.580;2023-04-25T05:57:32;15.17;;;3.50;;
21166;SDS011;10741;52.272;9.580;2023-04-25T05:59:58;19.90;;;4.07;;
21166;SDS011;10741;52.272;9.580;2023-04-25T06:02:24;14.97;;;4.33;;
21166;SDS011;10741;52.272;9.580;2023-04-25T06:04:50;17.40;;;3.53;;
21166;SDS011;10741;52.272;9.580;2023-04-25T06:07:16;14.27;;;3.67;;
21166;SDS011;10741;52.272;9.580;2023-04-25T06:09:43;14.13;;;3.87;;
21166;SDS011;10741;52.272;9.580;2023-04-25T06:12:08;14.57;;;4.27;;
21166;SDS011;10741;52.272;9.580;2023-04-25T06:14:34;14.07;;;3.77;;
21166;SDS011;10741;52.272;9.580;2023-04-25T06:17:00;15.43;;;3.67;;
21166;SDS011;10741;52.272;9.580;2023-04-25T06:19:37;16.20;;;4.07;;
21166;SDS011;10741;52.272;9.580;2023-04-25T06:22:03;17.20;;;4.37;;
21166;SDS011;10741;52.272;9.580;2023-04-25T06:24:29;13.50;;;3.63;;
21166;SDS011;10741;52.272;9.580;2023-04-25T06:26:54;19.47;;;3.80;;
21166;SDS011;10741;52.272;9.580;2023-04-25T06:29:20;12.20;;;3.40;;
21166;SDS011;10741;52.272;9.580;2023-04-25T06:31:46;16.97;;;3.53;;
21166;SDS011;10741;52.272;9.580;2023-04-25T06:34:12;17.40;;;4.00;;
21166;SDS011;10741;52.272;9.580;2023-04-25T06:36:37;12.73;;;3.00;;
21166;SDS011;10741;52.272;9.580;2023-04-25T06:39:03;18.70;;;3.73;;
21166;SDS011;10741;52.272;9.580;2023-04-25T06:41:29;17.53;;;3.77;;
21166;SDS011;10741;52.272;9.580;2023-04-25T06:43:55;16.10;;;3.80;;
21166;SDS011;10741;52.272;9.580;2023-04-25T06:46:21;11.27;;;3.97;;
21166;SDS011;10741;52.272;9.580;2023-04-25T06:48:47;11.77;;;3.50;;
21166;SDS011;10741;52.272;9.580;2023-04-25T06:51:12;17.30;;;3.50;;
21166;SDS011;10741;52.272;9.580;2023-04-25T06:53:38;16.50;;;4.37;;
21166;SDS011;10741;52.272;9.580;2023-04-25T06:56:05;13.63;;;3.57;;
21166;SDS011;10741;52.272;9.580;2023-04-25T06:58:31;13.70;;;3.43;;
21166;SDS011;10741;52.272;9.580;2023-04-25T07:00:57;10.47;;;3.40;;
21166;SDS011;10741;52.272;9.580;2023-04-25T07:03:22;14.83;;;3.20;;
21166;SDS011;10741;52.272;9.580;2023-04-25T07:05:49;11.10;;;2.80;;
21166;SDS011;10741;52.272;9.580;2023-04-25T07:08:15;12.60;;;2.97;;
21166;SDS011;10741;52.272;9.580;2023-04-25T07:10:41;12.17;;;3.47;;
21166;SDS011;10741;52.272;9.580;2023-04-25T07:13:07;14.67;;;3.30;;
21166;SDS011;10741;52.272;9.580;2023-04-25T07:15:32;12.63;;;3.00;;
21166;SDS011;10741;52.272;9.580;2023-04-25T07:17:58;10.30;;;3.13;;
21166;SDS011;10741;52.272;9.580;2023-04-25T07:20:24;14.03;;;3.43;;
21166;SDS011;10741;52.272;9.580;2023-04-25T07:22:50;13.40;;;2.73;;
21166;SDS011;10741;52.272;9.580;2023-04-25T07:25:16;12.17;;;3.40;;
21166;SDS011;10741;52.272;9.580;2023-04-25T07:27:42;11.50;;;2.63;;
21166;SDS011;10741;52.272;9.580;2023-04-25T07:30:08;14.47;;;3.17;;
21166;SDS011;10741;52.272;9.580;2023-04-25T07:32:34;9.77;;;2.50;;
21166;SDS011;10741;52.272;9.580;2023-04-25T07:35:00;11.33;;;3.10;;
21166;SDS011;10741;52.272;9.580;2023-04-25T07:37:27;13.37;;;2.73;;
21166;SDS011;10741;52.272;9.580;2023-04-25T07:39:52;9.63;;;2.87;;
21166;SDS011;10741;52.272;9.580;2023-04-25T07:42:18;13.33;;;2.80;;
21166;SDS011;10741;52.272;9.580;2023-04-25T07:44:44;13.07;;;2.90;;
21166;SDS011;10741;52.272;9.580;2023-04-25T07:47:10;12.83;;;3.07;;
21166;SDS011;10741;52.272;9.580;2023-04-25T07:49:36;8.23;;;2.50;;
21166;SDS011;10741;52.272;9.580;2023-04-25T07:52:02;10.77;;;3.20;;
21166;SDS011;10741;52.272;9.580;2023-04-25T07:54:31;10.70;;;3.00;;
21166;SDS011;10741;52.272;9.580;2023-04-25T07:56:57;10.33;;;2.57;;
21166;SDS011;10741;52.272;9.580;2023-04-25T07:59:23;9.97;;;2.63;;
21166;SDS011;10741;52.272;9.580;2023-04-25T08:01:49;8.90;;;2.77;;
21166;SDS011;10741;52.272;9.580;2023-04-25T08:04:15;9.60;;;2.57;;
21166;SDS011;10741;52.272;9.580;2023-04-25T08:06:41;9.70;;;2.20;;
21166;SDS011;10741;52.272;9.580;2023-04-25T08:09:07;10.50;;;2.57;;
21166;SDS011;10741;52.272;9.580;2023-04-25T08:11:34;6.23;;;1.90;;
21166;SDS011;10741;52.272;9.580;2023-04-25T08:14:00;13.33;;;2.60;;
21166;SDS011;10741;52.272;9.580;2023-04-25T08:16:26;10.57;;;2.03;;
21166;SDS011;10741;52.272;9.580;2023-04-25T08:18:52;7.97;;;2.10;;
21166;SDS011;10741;52.272;9.580;2023-04-25T08:21:18;8.60;;;2.10;;
21166;SDS011;10741;52.272;9.580;2023-04-25T08:23:45;13.10;;;2.10;;
21166;SDS011;10741;52.272;9.580;2023-04-25T08:26:11;7.03;;;2.20;;
21166;SDS011;10741;52.272;9.580;2023-04-25T08:28:36;9.53;;;2.00;;
21166;SDS011;10741;52.272;9.580;2023-04-25T08:31:02;9.97;;;2.50;;
21166;SDS011;10741;52.272;9.580;2023-04-25T08:33:28;9.37;;;2.30;;
21166;SDS011;10741;52.272;9.580;2023-04-25T08:35:55;5.90;;;1.70;;
21166;SDS011;10741;52.272;9.580;2023-04-25T08:38:21;7.00;;;2.43;;
21166;SDS011;10741;52.272;9.580;2023-04-25T08:40:48;4.83;;;1.60;;
21166;SDS011;10741;52.272;9.580;2023-04-25T08:43:17;4.07;;;1.43;;
21166;SDS011;10741;52.272;9.580;2023-04-25T08:45:44;6.13;;;1.80;;
21166;SDS011;10741;52.272;9.580;2023-04-25T08:48:11;10.63;;;2.40;;
21166;SDS011;10741;52.272;9.580;2023-04-25T08:50:45;5.50;;;1.90;;
21166;SDS011;10741;52.272;9.580;2023-04-25T08:53:17;9.73;;;2.17;;
21166;SDS011;10741;52.272;9.580;2023-04-25T08:55:50;10.00;;;2.40;;
21166;SDS011;10741;52.272;9.580;2023-04-25T08:58:19;6.17;;;2.33;;
21166;SDS011;10741;52.272;9.580;2023-04-25T09:00:46;6.10;;;1.93;;
21166;SDS011;10741;52.272;9.580;2023-04-25T09:03:12;6.80;;;2.40;;
21166;SDS011;10741;52.272;9.580;2023-04-25T09:05:39;11.23;;;2.60;;
21166;SDS011;10741;52.272;9.580;2023-04-25T09:08:06;8.33;;;2.07;;
21166;SDS011;10741;52.272;9.580;2023-04-25T09:10:32;7.57;;;2.20;;
21166;SDS011;10741;52.272;9.580;2023-04-25T09:20:54;6.30;;;2.00;;
21166;SDS011;10741;52.272;9.580;2023-04-25T09:23:22;6.90;;;2.00;;
21166;SDS011;10741;52.272;9.580;2023-04-25T09:25:49;4.90;;;1.60;;
21166;SDS011;10741;52.272;9.580;2023-04-25T09:28:15;6.63;;;1.80;;
21166;SDS011;10741;52.272;9.580;2023-04-25T09:30:47;5.77;;;1.57;;
21166;SDS011;10741;52.272;9.580;2023-04-25T09:33:13;7.20;;;1.60;;
21166;SDS011;10741;52.272;9.580;2023-04-25T09:35:40;5.67;;;1.80;;
21166;SDS011;10741;52.272;9.580;2023-04-25T09:38:11;5.67;;;1.83;;
21166;SDS011;10741;52.272;9.580;2023-04-25T09:40:41;7.57;;;1.97;;
21166;SDS011;10741;52.272;9.580;2023-04-25T09:43:09;9.60;;;2.10;;
21166;SDS011;10741;52.272;9.580;2023-04-25T09:45:41;7.17;;;1.63;;
21166;SDS011;10741;52.272;9.580;2023-04-25T09:48:11;9.00;;;2.13;;
21166;SDS011;10741;52.272;9.580;2023-04-25T09:50:38;5.00;;;1.67;;
21166;SDS011;10741;52.272;9.580;2023-04-25T09:53:04;9.27;;;2.07;;
21166;SDS011;10741;52.272;9.580;2023-04-25T09:55:34;5.63;;;1.77;;
21166;SDS011;10741;52.272;9.580;2023-04-25T09:58:03;4.20;;;1.43;;
21166;SDS011;10741;52.272;9.580;2023-04-25T10:00:33;6.27;;;1.70;;
21166;SDS011;10741;52.272;9.580;2023-04-25T10:03:03;7.67;;;1.80;;
21166;SDS011;10741;52.272;9.580;2023-04-25T10:05:32;7.80;;;1.87;;
21166;SDS011;10741;52.272;9.580;2023-04-25T10:08:02;7.13;;;1.70;;
21166;SDS011;10741;52.272;9.580;2023-04-25T10:10:31;4.53;;;1.80;;
21166;SDS011;10741;52.272;9.580;2023-04-25T10:13:02;5.50;;;1.90;;
21166;SDS011;10741;52.272;9.580;2023-04-25T10:15:28;7.10;;;1.60;;
21166;SDS011;10741;52.272;9.580;2023-04-25T10:17:55;9.93;;;1.97;;
21166;SDS011;10741;52.272;9.580;2023-04-25T10:20:22;5.60;;;1.60;;
21166;SDS011;10741;52.272;9.580;2023-04-25T10:22:48;7.67;;;1.93;;
21166;SDS011;10741;52.272;9.580;2023-04-25T10:25:19;6.23;;;2.10;;
21166;SDS011;10741;52.272;9.580;2023-04-25T10:27:45;8.30;;;1.93;;
21166;SDS011;10741;52.272;9.580;2023-04-25T10:30:13;7.93;;;2.10;;
21166;SDS011;10741;52.272;9.580;2023-04-25T10:32:43;6.27;;;1.80;;
21166;SDS011;10741;52.272;9.580;2023-04-25T10:35:14;6.77;;;1.77;;
21166;SDS011;10741;52.272;9.580;2023-04-25T10:40:27;6.67;;;1.80;;
21166;SDS011;10741;52.272;9.580;2023-04-25T10:42:53;6.80;;;1.83;;
21166;SDS011;10741;52.272;9.580;2023-04-25T10:45:22;4.83;;;1.43;;
21166;SDS011;10741;52.272;9.580;2023-04-25T10:47:48;5.77;;;1.70;;
21166;SDS011;10741;52.272;9.580;2023-04-25T10:50:14;6.73;;;2.10;;
21166;SDS011;10741;52.272;9.580;2023-04-25T10:52:41;6.87;;;1.97;;
21166;SDS011;10741;52.272;9.580;2023-04-25T10:55:07;8.37;;;1.90;;
21166;SDS011;10741;52.272;9.580;2023-04-25T10:57:44;4.90;;;1.53;;
21166;SDS011;10741;52.272;9.580;2023-04-25T11:00:15;4.80;;;1.80;;
21166;SDS011;10741;52.272;9.580;2023-04-25T11:02:47;7.17;;;2.23;;
21166;SDS011;10741;52.272;9.580;2023-04-25T11:05:23;4.00;;;1.50;;
21166;SDS011;10741;52.272;9.580;2023-04-25T11:08:00;4.27;;;1.47;;
21166;SDS011;10741;52.272;9.580;2023-04-25T11:12:52;6.47;;;1.50;;
21166;SDS011;10741;52.272;9.580;2023-04-25T11:15:18;8.77;;;2.27;;
21166;SDS011;10741;52.272;9.580;2023-04-25T11:17:44;3.67;;;1.47;;
21166;SDS011;10741;52.272;9.580;2023-04-25T11:20:11;5.30;;;1.97;;
21166;SDS011;10741;52.272;9.580;2023-04-25T11:22:38;4.87;;;1.87;;
21166;SDS011;10741;52.272;9.580;2023-04-25T11:25:09;5.70;;;1.83;;
21166;SDS011;10741;52.272;9.580;2023-04-25T11:27:57;6.23;;;1.87;;
21166;SDS011;10741;52.272;9.580;2023-04-25T11:30:25;6.83;;;1.90;;
21166;SDS011;10741;52.272;9.580;2023-04-25T11:32:52;5.13;;;1.60;;
21166;SDS011;10741;52.272;9.580;2023-04-25T11:35:18;6.30;;;1.90;;
21166;SDS011;10741;52.272;9.580;2023-04-25T11:37:47;8.73;;;2.07;;
21166;SDS011;10741;52.272;9.580;2023-04-25T11:40:13;9.40;;;1.90;;
21166;SDS011;10741;52.272;9.580;2023-04-25T11:42:44;8.07;;;1.87;;
21166;SDS011;10741;52.272;9.580;2023-04-25T11:45:11;7.23;;;1.77;;
21166;SDS011;10741;52.272;9.580;2023-04-25T11:47:37;3.93;;;2.10;;
21166;SDS011;10741;52.272;9.580;2023-04-25T11:50:04;3.80;;;1.53;;
21166;SDS011;10741;52.272;9.580;2023-04-25T11:52:43;7.43;;;1.63;;
21166;SDS011;10741;52.272;9.580;2023-04-25T11:55:14;7.73;;;2.00;;
21166;SDS011;10741;52.272;9.580;2023-04-25T11:57:42;7.60;;;1.87;;
21166;SDS011;10741;52.272;9.580;2023-04-25T12:00:11;10.23;;;2.17;;
21166;SDS011;10741;52.272;9.580;2023-04-25T12:02:42;5.07;;;1.70;;
21166;SDS011;10741;52.272;9.580;2023-04-25T12:05:10;4.83;;;1.87;;
21166;SDS011;10741;52.272;9.580;2023-04-25T12:07:36;6.60;;;1.70;;
21166;SDS011;10741;52.272;9.580;2023-04-25T12:10:13;3.63;;;1.53;;
21166;SDS011;10741;52.272;9.580;2023-04-25T12:12:43;4.17;;;1.50;;
21166;SDS011;10741;52.272;9.580;2023-04-25T12:15:14;3.27;;;1.20;;
21166;SDS011;10741;52.272;9.580;2023-04-25T12:17:41;3.60;;;1.50;;
21166;SDS011;10741;52.272;9.580;2023-04-25T12:20:10;4.33;;;1.20;;
21166;SDS011;10741;52.272;9.580;2023-04-25T12:22:48;3.10;;;1.17;;
21166;SDS011;10741;52.272;9.580;2023-04-25T12:28:18;2.50;;;0.80;;
21166;SDS011;10741;52.272;9.580;2023-04-25T12:33:31;3.13;;;1.00;;
21166;SDS011;10741;52.272;9.580;2023-04-25T12:36:02;2.60;;;1.30;;
21166;SDS011;10741;52.272;9.580;2023-04-25T12:38:35;4.43;;;1.23;;
21166;SDS011;10741;52.272;9.580;2023-04-25T12:41:02;2.83;;;0.93;;
21166;SDS011;10741;52.272;9.580;2023-04-25T12:43:28;3.47;;;0.90;;
21166;SDS011;10741;52.272;9.580;2023-04-25T12:45:54;4.53;;;0.97;;
21166;SDS011;10741;52.272;9.580;2023-04-25T12:48:21;6.07;;;1.30;;
21166;SDS011;10741;52.272;9.580;2023-04-25T12:50:47;2.83;;;1.23;;
21166;SDS011;10741;52.272;9.580;2023-04-25T12:53:21;2.37;;;1.27;;
21166;SDS011;10741;52.272;9.580;2023-04-25T12:55:48;4.87;;;1.20;;
21166;SDS011;10741;52.272;9.580;2023-04-25T12:58:14;2.67;;;1.13;;
21166;SDS011;10741;52.272;9.580;2023-04-25T13:00:41;2.57;;;1.10;;
21166;SDS011;10741;52.272;9.580;2023-04-25T13:03:07;5.13;;;1.10;;
21166;SDS011;10741;52.272;9.580;2023-04-25T13:05:34;3.27;;;1.00;;
21166;SDS011;10741;52.272;9.580;2023-04-25T13:08:00;3.37;;;1.07;;
21166;SDS011;10741;52.272;9.580;2023-04-25T13:10:26;4.93;;;1.67;;
21166;SDS011;10741;52.272;9.580;2023-04-25T13:12:52;3.67;;;1.10;;
21166;SDS011;10741;52.272;9.580;2023-04-25T13:15:17;2.47;;;1.10;;
21166;SDS011;10741;52.272;9.580;2023-04-25T13:17:43;4.37;;;1.30;;
21166;SDS011;10741;52.272;9.580;2023-04-25T13:20:09;4.23;;;1.20;;
21166;SDS011;10741;52.272;9.580;2023-04-25T13:22:38;7.63;;;1.73;;
21166;SDS011;10741;52.272;9.580;2023-04-25T13:25:05;4.10;;;1.80;;
21166;SDS011;10741;52.272;9.580;2023-04-25T13:27:33;7.37;;;1.50;;
21166;SDS011;10741;52.272;9.580;2023-04-25T13:30:00;3.50;;;1.40;;
21166;SDS011;10741;52.272;9.580;2023-04-25T13:32:29;5.07;;;1.47;;
21166;SDS011;10741;52.272;9.580;2023-04-25T13:34:55;4.43;;;1.50;;
21166;SDS011;10741;52.272;9.580;2023-04-25T13:37:21;3.23;;;1.17;;
21166;SDS011;10741;52.272;9.580;2023-04-25T13:39:49;3.90;;;1.37;;
21166;SDS011;10741;52.272;9.580;2023-04-25T13:42:15;2.50;;;1.10;;
21166;SDS011;10741;52.272;9.580;2023-04-25T13:44:41;3.00;;;1.17;;
21166;SDS011;10741;52.272;9.580;2023-04-25T13:47:06;5.40;;;1.60;;
21166;SDS011;10741;52.272;9.580;2023-04-25T13:49:32;4.33;;;1.43;;
21166;SDS011;10741;52.272;9.580;2023-04-25T13:51:58;3.53;;;1.73;;
21166;SDS011;10741;52.272;9.580;2023-04-25T13:54:23;3.20;;;1.77;;
21166;SDS011;10741;52.272;9.580;2023-04-25T13:56:50;2.60;;;1.60;;
21166;SDS011;10741;52.272;9.580;2023-04-25T13:59:16;3.83;;;1.93;;
21166;SDS011;10741;52.272;9.580;2023-04-25T14:01:42;3.00;;;1.73;;
21166;SDS011;10741;52.272;9.580;2023-04-25T14:04:08;4.17;;;1.63;;
21166;SDS011;10741;52.272;9.580;2023-04-25T14:06:34;4.47;;;1.40;;
21166;SDS011;10741;52.272;9.580;2023-04-25T14:09:00;5.77;;;1.47;;
21166;SDS011;10741;52.272;9.580;2023-04-25T14:11:26;3.23;;;1.33;;
21166;SDS011;10741;52.272;9.580;2023-04-25T14:13:51;3.60;;;1.40;;
21166;SDS011;10741;52.272;9.580;2023-04-25T14:16:17;2.30;;;1.40;;
21166;SDS011;10741;52.272;9.580;2023-04-25T14:18:43;3.37;;;1.47;;
21166;SDS011;10741;52.272;9.580;2023-04-25T14:21:09;4.80;;;1.50;;
21166;SDS011;10741;52.272;9.580;2023-04-25T14:23:35;10.13;;;1.90;;
21166;SDS011;10741;52.272;9.580;2023-04-25T14:26:01;3.73;;;1.30;;
21166;SDS011;10741;52.272;9.580;2023-04-25T14:28:27;4.00;;;1.40;;
21166;SDS011;10741;52.272;9.580;2023-04-25T14:30:52;3.30;;;1.53;;
21166;SDS011;10741;52.272;9.580;2023-04-25T14:33:18;4.70;;;1.40;;
21166;SDS011;10741;52.272;9.580;2023-04-25T14:35:44;6.97;;;1.50;;
21166;SDS011;10741;52.272;9.580;2023-04-25T14:38:10;4.63;;;1.40;;
21166;SDS011;10741;52.272;9.580;2023-04-25T14:40:36;6.67;;;1.20;;
21166;SDS011;10741;52.272;9.580;2023-04-25T14:43:03;1.83;;;1.27;;
21166;SDS011;10741;52.272;9.580;2023-04-25T14:45:28;5.63;;;1.50;;
21166;SDS011;10741;52.272;9.580;2023-04-25T14:47:54;2.10;;;1.10;;
21166;SDS011;10741;52.272;9.580;2023-04-25T14:50:20;3.53;;;1.40;;
21166;SDS011;10741;52.272;9.580;2023-04-25T14:52:46;6.40;;;1.37;;
21166;SDS011;10741;52.272;9.580;2023-04-25T14:55:13;3.67;;;1.03;;
21166;SDS011;10741;52.272;9.580;2023-04-25T14:57:39;3.47;;;1.00;;